Time;durP1;ratioP1;P1;durP2;ratioP2;P2;SDS_P1;SDS_P2;PMS_P1;PMS_P2;Temp;Humidity;BMP_temperature;BMP_pressure;BME280_temperature;BME280_humidity;BME280_pressure;Samples;Min_cycle;Max_cycle;Signal;HPM_P1;HPM_P2
2022/03/02 00:01:49;;;;;;;;;;;-0.70;79.20;;;;;;5081138;28;19908;-65
2022/03/02 00:04:15;;;;;;;;;;;-0.70;78.80;;;;;;5082411;28;19909;-66
2022/03/02 00:06:41;;;;;;;;;;;-0.60;78.60;;;;;;5082336;28;19946;-66
2022/03/02 00:09:06;;;;;;;;;;;-0.60;78.60;;;;;;5081947;28;20223;-65
2022/03/02 00:11:32;;;;;;;;;;;-0.70;79.00;;;;;;5081787;28;19924;-66
2022/03/02 00:14:00;;;;;;;;;;;-0.80;78.90;;;;;;5082388;28;19971;-68
2022/03/02 00:16:28;;;;;;;;;;;-0.80;78.70;;;;;;5082261;28;19908;-66
2022/03/02 00:18:55;;;;;;;;;;;-0.90;78.90;;;;;;5082192;28;19908;-68
2022/03/02 00:21:21;;;;;;;;;;;-0.80;79.20;;;;;;5082050;28;19908;-65
2022/03/02 00:23:46;;;;;;;;;;;-0.80;79.00;;;;;;5082289;28;20063;-66
2022/03/02 00:26:12;;;;;;;;;;;-0.70;79.00;;;;;;5081974;28;19909;-66
2022/03/02 00:28:38;;;;;;;;;;;-0.80;79.00;;;;;;5082221;28;20200;-65
2022/03/02 00:31:03;;;;;;;;;;;-0.80;79.00;;;;;;5081914;28;19908;-68
2022/03/02 00:33:29;;;;;;;;;;;-0.80;79.10;;;;;;5082035;28;20234;-66
2022/03/02 00:35:55;;;;;;;;;;;-0.80;78.30;;;;;;5081164;28;19931;-65
2022/03/02 00:38:20;;;;;;;;;;;-0.70;77.30;;;;;;5081923;28;19934;-68
2022/03/02 00:40:46;;;;;;;;;;;-0.80;76.90;;;;;;5080835;28;19908;-68
2022/03/02 00:43:12;;;;;;;;;;;-0.70;76.70;;;;;;5083135;28;19919;-68
2022/03/02 00:45:38;;;;;;;;;;;-0.70;76.80;;;;;;5085788;28;20143;-66
2022/03/02 00:48:04;;;;;;;;;;;-0.80;76.90;;;;;;5084432;28;19908;-67
2022/03/02 00:50:30;;;;;;;;;;;-0.80;77.60;;;;;;5085425;28;19923;-65
2022/03/02 00:52:56;;;;;;;;;;;-0.80;78.80;;;;;;5085450;28;19944;-66
2022/03/02 00:55:22;;;;;;;;;;;-0.80;79.10;;;;;;5085370;28;19915;-65
2022/03/02 00:57:48;;;;;;;;;;;-0.80;79.80;;;;;;5085427;28;19913;-66
2022/03/02 01:00:13;;;;;;;;;;;-0.90;79.90;;;;;;5085439;28;19908;-65
2022/03/02 01:02:39;;;;;;;;;;;-0.90;80.00;;;;;;5085114;28;19928;-66
2022/03/02 01:05:05;;;;;;;;;;;-0.90;79.70;;;;;;5085439;28;19913;-68
2022/03/02 01:07:31;;;;;;;;;;;-0.90;80.20;;;;;;5085368;28;19943;-66
2022/03/02 01:09:57;;;;;;;;;;;-0.90;80.20;;;;;;5085276;28;19913;-66
2022/03/02 01:12:23;;;;;;;;;;;-0.90;80.80;;;;;;5084694;28;19908;-66
2022/03/02 01:14:49;;;;;;;;;;;-1.00;82.00;;;;;;5085274;28;20014;-66
2022/03/02 01:17:15;;;;;;;;;;;-1.10;81.90;;;;;;5085198;28;20260;-66
2022/03/02 01:19:40;;;;;;;;;;;-1.10;82.40;;;;;;5085239;28;19912;-66
2022/03/02 01:22:06;;;;;;;;;;;-1.10;82.40;;;;;;5084911;28;19908;-67
2022/03/02 01:24:32;;;;;;;;;;;-1.10;82.90;;;;;;5085124;28;19980;-68
2022/03/02 01:26:58;;;;;;;;;;;-1.20;82.70;;;;;;5083515;28;20329;-68
2022/03/02 01:29:23;;;;;;;;;;;-1.20;82.30;;;;;;5083849;28;19920;-67
2022/03/02 01:31:49;;;;;;;;;;;-1.20;82.40;;;;;;5084560;28;20127;-68
2022/03/02 01:34:15;;;;;;;;;;;-1.20;82.70;;;;;;5083658;28;19915;-68
2022/03/02 01:36:41;;;;;;;;;;;-1.40;83.20;;;;;;5084677;28;20023;-67
2022/03/02 01:39:06;;;;;;;;;;;-1.30;83.10;;;;;;5083562;28;19908;-67
2022/03/02 01:41:33;;;;;;;;;;;-1.30;83.10;;;;;;5083491;28;19916;-65
2022/03/02 01:43:59;;;;;;;;;;;-1.30;83.60;;;;;;5084565;28;20123;-65
2022/03/02 01:46:25;;;;;;;;;;;-1.40;83.40;;;;;;5084508;28;19909;-67
2022/03/02 01:48:51;;;;;;;;;;;-1.40;83.80;;;;;;5084279;28;20147;-67
2022/03/02 01:51:17;;;;;;;;;;;-1.50;84.10;;;;;;5084139;28;19915;-67
2022/03/02 01:53:42;;;;;;;;;;;-1.50;84.40;;;;;;5083371;28;19957;-68
2022/03/02 01:56:08;;;;;;;;;;;-1.40;84.00;;;;;;5083552;28;19916;-67
2022/03/02 01:58:34;;;;;;;;;;;-1.40;83.80;;;;;;5084140;28;19962;-67
2022/03/02 02:01:00;;;;;;;;;;;-1.60;84.50;;;;;;5084001;28;19920;-67
2022/03/02 02:03:26;;;;;;;;;;;-1.60;84.60;;;;;;5084386;28;20210;-67
2022/03/02 02:05:52;;;;;;;;;;;-1.50;84.40;;;;;;5084273;28;19946;-67
2022/03/02 02:08:17;;;;;;;;;;;-1.50;84.80;;;;;;5082797;28;19912;-66
2022/03/02 02:10:43;;;;;;;;;;;-1.50;85.00;;;;;;5082089;28;19952;-67
2022/03/02 02:13:09;;;;;;;;;;;-1.50;85.20;;;;;;5084079;28;19912;-67
2022/03/02 02:15:35;;;;;;;;;;;-1.40;85.80;;;;;;5083912;28;19983;-66
2022/03/02 02:18:00;;;;;;;;;;;-1.40;86.80;;;;;;5082692;28;20108;-66
2022/03/02 02:20:26;;;;;;;;;;;-1.40;87.00;;;;;;5083796;28;20116;-66
2022/03/02 02:22:52;;;;;;;;;;;-1.40;87.40;;;;;;5083501;28;19908;-68
2022/03/02 02:25:17;;;;;;;;;;;-1.30;87.40;;;;;;5083514;28;19954;-68
2022/03/02 02:27:44;;;;;;;;;;;-1.40;87.50;;;;;;5083651;28;19909;-68
2022/03/02 02:30:11;;;;;;;;;;;-1.40;87.00;;;;;;5083612;28;19999;-69
2022/03/02 02:32:37;;;;;;;;;;;-1.40;86.70;;;;;;5083340;28;20096;-69
2022/03/02 02:35:03;;;;;;;;;;;-1.30;86.30;;;;;;5082426;28;19961;-68
2022/03/02 02:37:29;;;;;;;;;;;-1.30;86.70;;;;;;5082254;28;19913;-68
2022/03/02 02:39:59;;;;;;;;;;;-1.30;86.40;;;;;;5081835;28;20317;-68
2022/03/02 02:42:25;;;;;;;;;;;-1.30;86.50;;;;;;5082826;28;19916;-68
2022/03/02 02:44:51;;;;;;;;;;;-1.40;86.80;;;;;;5082217;28;19909;-68
2022/03/02 02:47:17;;;;;;;;;;;-1.50;86.90;;;;;;5083207;28;19981;-68
2022/03/02 02:49:42;;;;;;;;;;;-1.40;87.10;;;;;;5083178;28;19974;-69
2022/03/02 02:52:08;;;;;;;;;;;-1.30;86.60;;;;;;5082913;28;19975;-68
2022/03/02 02:54:34;;;;;;;;;;;-1.40;87.10;;;;;;5083429;28;20260;-69
2022/03/02 02:56:59;;;;;;;;;;;-1.40;87.00;;;;;;5082836;28;20096;-69
2022/03/02 02:59:25;;;;;;;;;;;-1.50;87.40;;;;;;5083084;28;19962;-69
2022/03/02 03:01:51;;;;;;;;;;;-1.50;87.30;;;;;;5081564;28;19908;-69
2022/03/02 03:04:16;;;;;;;;;;;-1.40;86.90;;;;;;5082962;28;19909;-68
2022/03/02 03:06:42;;;;;;;;;;;-1.40;86.60;;;;;;5082079;28;19915;-68
2022/03/02 03:09:08;;;;;;;;;;;-1.40;86.60;;;;;;5082841;28;19916;-68
2022/03/02 03:11:37;;;;;;;;;;;-1.40;87.10;;;;;;5081665;28;20111;-68
2022/03/02 03:14:09;;;;;;;;;;;-1.40;87.40;;;;;;5082834;28;19913;-68
2022/03/02 03:16:35;;;;;;;;;;;-1.30;87.60;;;;;;5081676;28;20238;-68
2022/03/02 03:19:01;;;;;;;;;;;-1.40;87.90;;;;;;5082651;28;19908;-68
2022/03/02 03:21:27;;;;;;;;;;;-1.40;88.50;;;;;;5082355;28;20119;-68
2022/03/02 03:23:52;;;;;;;;;;;-1.40;88.70;;;;;;5082670;28;19908;-68
2022/03/02 03:26:18;;;;;;;;;;;-1.40;88.50;;;;;;5082533;28;19994;-68
2022/03/02 03:28:44;;;;;;;;;;;-1.40;88.00;;;;;;5082508;28;19913;-68
2022/03/02 03:31:09;;;;;;;;;;;-1.40;87.50;;;;;;5082386;28;19916;-68
2022/03/02 03:33:35;;;;;;;;;;;-1.40;87.80;;;;;;5082577;28;20008;-68
2022/03/02 03:36:01;;;;;;;;;;;-1.40;87.90;;;;;;5082502;28;19980;-68
2022/03/02 03:38:26;;;;;;;;;;;-1.30;87.40;;;;;;5082435;28;19991;-68
2022/03/02 03:40:52;;;;;;;;;;;-1.50;87.40;;;;;;5081329;28;19920;-67
2022/03/02 03:43:18;;;;;;;;;;;-1.60;88.00;;;;;;5082585;28;19908;-69
2022/03/02 03:45:43;;;;;;;;;;;-1.60;88.70;;;;;;5082495;28;19980;-68
2022/03/02 03:48:09;;;;;;;;;;;-1.60;88.10;;;;;;5082447;28;20115;-70
2022/03/02 03:50:35;;;;;;;;;;;-1.60;88.20;;;;;;5081967;28;20305;-69
2022/03/02 03:53:01;;;;;;;;;;;-1.70;88.60;;;;;;5082369;28;19913;-69
2022/03/02 03:55:26;;;;;;;;;;;-1.70;88.90;;;;;;5082226;28;19908;-70
2022/03/02 03:57:52;;;;;;;;;;;-1.70;89.10;;;;;;5082268;28;19916;-70
2022/03/02 04:00:18;;;;;;;;;;;-1.70;89.40;;;;;;5082324;28;19908;-69
2022/03/02 04:02:45;;;;;;;;;;;-1.60;89.50;;;;;;5080861;28;20245;-68
2022/03/02 04:05:10;;;;;;;;;;;-1.50;88.70;;;;;;5064420;28;20195;-69
2022/03/02 04:07:36;;;;;;;;;;;-1.60;88.70;;;;;;5082371;28;19916;-69
2022/03/02 04:10:04;;;;;;;;;;;-1.60;89.10;;;;;;5081979;28;20329;-69
2022/03/02 04:12:30;;;;;;;;;;;-1.70;89.90;;;;;;5080491;28;19916;-69
2022/03/02 04:14:56;;;;;;;;;;;-1.70;90.00;;;;;;5082292;28;20225;-68
2022/03/02 04:17:22;;;;;;;;;;;-1.70;89.90;;;;;;5082111;28;19915;-67
2022/03/02 04:19:48;;;;;;;;;;;-1.70;89.50;;;;;;5086034;28;19916;-68
2022/03/02 04:22:14;;;;;;;;;;;-1.70;89.70;;;;;;5084430;28;19920;-67
2022/03/02 04:24:40;;;;;;;;;;;-1.50;89.20;;;;;;5084789;28;20154;-68
2022/03/02 04:27:05;;;;;;;;;;;-1.40;88.30;;;;;;5083439;28;20102;-67
2022/03/02 04:29:32;;;;;;;;;;;-1.50;88.00;;;;;;5084855;28;19920;-67
2022/03/02 04:31:57;;;;;;;;;;;-1.50;88.70;;;;;;5084660;28;20126;-68
2022/03/02 04:34:23;;;;;;;;;;;-1.50;89.00;;;;;;5083599;28;19939;-67
2022/03/02 04:36:49;;;;;;;;;;;-1.50;88.60;;;;;;5084598;28;20011;-68
2022/03/02 04:39:14;;;;;;;;;;;-1.40;88.90;;;;;;5083401;28;19993;-68
2022/03/02 04:41:40;;;;;;;;;;;-1.40;88.90;;;;;;5084061;28;19939;-67
2022/03/02 04:44:06;;;;;;;;;;;-1.50;89.20;;;;;;5084664;28;19912;-67
2022/03/02 04:46:31;;;;;;;;;;;-1.40;89.60;;;;;;5100039;28;19912;-67
2022/03/02 04:48:57;;;;;;;;;;;-1.30;89.60;;;;;;5083985;28;20278;-67
2022/03/02 04:51:23;;;;;;;;;;;-1.20;89.60;;;;;;5084090;28;19999;-67
2022/03/02 04:53:50;;;;;;;;;;;-1.30;89.70;;;;;;5049776;28;20164;-66
2022/03/02 04:56:16;;;;;;;;;;;-1.20;89.90;;;;;;5084017;28;19909;-68
2022/03/02 04:58:42;;;;;;;;;;;-1.10;89.90;;;;;;5084152;28;19943;-68
2022/03/02 05:01:07;;;;;;;;;;;-1.10;89.70;;;;;;5084005;28;19908;-68
2022/03/02 05:03:33;;;;;;;;;;;-1.10;89.20;;;;;;5082846;28;20243;-66
2022/03/02 05:05:59;;;;;;;;;;;-1.20;89.40;;;;;;5084138;28;19908;-66
2022/03/02 05:08:24;;;;;;;;;;;-1.10;88.80;;;;;;5083748;28;19923;-66
2022/03/02 05:10:50;;;;;;;;;;;-1.10;88.90;;;;;;5083625;28;20211;-66
2022/03/02 05:13:15;;;;;;;;;;;-1.10;88.00;;;;;;5084079;28;19975;-67
2022/03/02 05:15:41;;;;;;;;;;;-1.20;88.10;;;;;;5084066;28;19962;-67
2022/03/02 05:18:07;;;;;;;;;;;-1.20;88.00;;;;;;5083853;28;20111;-67
2022/03/02 05:20:33;;;;;;;;;;;-1.20;88.40;;;;;;5083681;28;19916;-68
2022/03/02 05:22:59;;;;;;;;;;;-1.10;88.80;;;;;;5083698;28;20110;-68
2022/03/02 05:25:24;;;;;;;;;;;-1.10;88.40;;;;;;5080131;28;20239;-67
2022/03/02 05:27:50;;;;;;;;;;;-1.00;87.70;;;;;;5078579;28;19921;-66
2022/03/02 05:30:17;;;;;;;;;;;-1.00;87.80;;;;;;5082080;28;20131;-68
2022/03/02 05:32:42;;;;;;;;;;;-1.20;88.50;;;;;;5082031;28;19919;-67
2022/03/02 05:35:08;;;;;;;;;;;-1.10;88.70;;;;;;5082516;28;19908;-68
2022/03/02 05:37:34;;;;;;;;;;;-1.10;88.30;;;;;;5083416;28;20341;-68
2022/03/02 05:40:02;;;;;;;;;;;-1.10;88.50;;;;;;5083497;28;19916;-67
2022/03/02 05:42:28;;;;;;;;;;;-1.10;88.30;;;;;;5080855;28;19908;-68
2022/03/02 05:44:53;;;;;;;;;;;-1.10;87.60;;;;;;5079047;28;19940;-67
2022/03/02 05:47:19;;;;;;;;;;;-1.10;88.10;;;;;;5083362;28;20155;-66
2022/03/02 05:49:45;;;;;;;;;;;-1.10;88.60;;;;;;5083242;28;19920;-66
2022/03/02 05:52:11;;;;;;;;;;;-1.00;88.40;;;;;;5083084;28;19916;-66
2022/03/02 05:54:36;;;;;;;;;;;-0.90;87.10;;;;;;5083212;28;19908;-67
2022/03/02 05:57:02;;;;;;;;;;;-1.00;86.90;;;;;;5082748;28;19954;-69
2022/03/02 05:59:28;;;;;;;;;;;-0.90;87.70;;;;;;5083267;28;20103;-67
2022/03/02 06:01:53;;;;;;;;;;;-0.90;87.00;;;;;;5082927;28;19940;-68
2022/03/02 06:04:19;;;;;;;;;;;-0.90;86.60;;;;;;5083142;28;19995;-67
2022/03/02 06:06:45;;;;;;;;;;;-0.90;86.50;;;;;;5083118;28;20309;-67
2022/03/02 06:09:11;;;;;;;;;;;-0.90;86.80;;;;;;5082870;28;19912;-68
2022/03/02 06:11:37;;;;;;;;;;;-0.90;86.90;;;;;;5082583;28;19908;-67
2022/03/02 06:14:04;;;;;;;;;;;-0.80;87.00;;;;;;5081857;28;19950;-67
2022/03/02 06:16:30;;;;;;;;;;;-0.90;87.20;;;;;;5081928;28;19942;-67
2022/03/02 06:18:56;;;;;;;;;;;-0.90;87.40;;;;;;5081556;28;19931;-67
2022/03/02 06:21:27;;;;;;;;;;;-0.90;87.50;;;;;;5082925;28;19908;-68
2022/03/02 06:23:53;;;;;;;;;;;-0.80;87.90;;;;;;5082808;28;19954;-67
2022/03/02 06:26:19;;;;;;;;;;;-0.70;87.80;;;;;;5082643;28;19908;-67
2022/03/02 06:28:45;;;;;;;;;;;-0.70;87.40;;;;;;5082574;28;19935;-67
2022/03/02 06:31:13;;;;;;;;;;;-0.80;87.10;;;;;;5082970;28;19954;-67
2022/03/02 06:33:38;;;;;;;;;;;-0.80;87.40;;;;;;5066198;28;20256;-68
2022/03/02 06:36:05;;;;;;;;;;;-0.80;88.20;;;;;;5082066;28;19916;-67
2022/03/02 06:38:31;;;;;;;;;;;-0.80;88.00;;;;;;5082966;28;19913;-68
2022/03/02 06:41:24;;;;;;;;;;;-0.70;88.20;;;;;;5078239;28;19913;-66
2022/03/02 06:44:26;;;;;;;;;;;-0.70;87.90;;;;;;5080222;28;19966;-69
2022/03/02 06:47:02;;;;;;;;;;;-0.50;87.20;;;;;;5071312;28;20161;-70
2022/03/02 06:49:55;;;;;;;;;;;-0.40;85.70;;;;;;5080190;28;19983;-68
2022/03/02 06:52:21;;;;;;;;;;;-0.30;85.30;;;;;;5080686;28;19974;-67
2022/03/02 06:54:49;;;;;;;;;;;-0.30;85.60;;;;;;5082117;28;19912;-68
2022/03/02 06:57:18;;;;;;;;;;;-0.30;85.50;;;;;;5081668;28;20054;-67
2022/03/02 06:59:44;;;;;;;;;;;-0.40;85.20;;;;;;5080404;28;19936;-68
2022/03/02 07:02:12;;;;;;;;;;;-0.40;85.20;;;;;;5080233;28;19958;-68
2022/03/02 07:04:40;;;;;;;;;;;-0.40;85.10;;;;;;5081713;28;19920;-68
2022/03/02 07:07:05;;;;;;;;;;;-0.30;85.20;;;;;;5081673;28;19916;-67
2022/03/02 07:09:31;;;;;;;;;;;-0.20;84.50;;;;;;5081958;28;19939;-68
2022/03/02 07:12:07;;;;;;;;;;;-0.10;83.90;;;;;;5081108;28;19954;-68
2022/03/02 07:14:34;;;;;;;;;;;-0.10;84.50;;;;;;5081710;28;20026;-68
2022/03/02 07:17:01;;;;;;;;;;;0.00;84.80;;;;;;5075867;28;20084;-68
2022/03/02 07:19:26;;;;;;;;;;;0.00;84.70;;;;;;5075132;28;19913;-68
2022/03/02 07:21:52;;;;;;;;;;;0.10;84.60;;;;;;5081204;28;19919;-68
2022/03/02 07:24:19;;;;;;;;;;;0.10;84.60;;;;;;5081684;28;19909;-68
2022/03/02 07:26:46;;;;;;;;;;;0.20;84.30;;;;;;5082336;28;19924;-69
2022/03/02 07:29:15;;;;;;;;;;;0.30;83.90;;;;;;5081671;28;20089;-69
2022/03/02 07:31:41;;;;;;;;;;;0.20;82.70;;;;;;5081240;28;19912;-69
2022/03/02 07:34:10;;;;;;;;;;;0.20;83.50;;;;;;5081404;28;20018;-70
2022/03/02 07:36:35;;;;;;;;;;;0.30;83.00;;;;;;5065113;28;19975;-68
2022/03/02 07:39:01;;;;;;;;;;;0.30;83.10;;;;;;5082471;28;19939;-69
2022/03/02 07:41:27;;;;;;;;;;;0.40;83.30;;;;;;5080402;28;19909;-68
2022/03/02 07:43:53;;;;;;;;;;;0.50;82.90;;;;;;5081464;28;19915;-67
2022/03/02 07:46:18;;;;;;;;;;;0.60;82.90;;;;;;5081331;28;20203;-68
2022/03/02 07:48:44;;;;;;;;;;;0.60;82.40;;;;;;5081393;28;20402;-67
2022/03/02 07:51:10;;;;;;;;;;;0.70;81.50;;;;;;5081082;28;19917;-68
2022/03/02 07:53:48;;;;;;;;;;;0.80;80.90;;;;;;5080858;28;19981;-68
2022/03/02 07:56:14;;;;;;;;;;;0.90;81.60;;;;;;5079957;28;19980;-67
2022/03/02 07:58:40;;;;;;;;;;;0.90;81.70;;;;;;5080167;28;20228;-67
2022/03/02 08:01:15;;;;;;;;;;;1.00;81.50;;;;;;5079768;28;19981;-68
2022/03/02 08:03:42;;;;;;;;;;;1.10;81.40;;;;;;5079870;28;19908;-67
2022/03/02 08:06:07;;;;;;;;;;;1.20;81.00;;;;;;5081268;28;19908;-68
2022/03/02 08:08:36;;;;;;;;;;;1.30;80.60;;;;;;5080854;28;19931;-67
2022/03/02 08:11:02;;;;;;;;;;;1.40;80.10;;;;;;5080585;28;20091;-67
2022/03/02 08:13:33;;;;;;;;;;;1.50;79.50;;;;;;5081389;28;19953;-68
2022/03/02 08:15:59;;;;;;;;;;;1.60;78.10;;;;;;5081281;28;20150;-68
2022/03/02 08:18:25;;;;;;;;;;;1.70;78.80;;;;;;5081098;28;19917;-67
2022/03/02 08:20:52;;;;;;;;;;;1.70;78.90;;;;;;5080801;28;19939;-67
2022/03/02 08:23:21;;;;;;;;;;;1.70;78.70;;;;;;5081188;28;19979;-67
2022/03/02 08:25:50;;;;;;;;;;;1.80;78.70;;;;;;5081139;28;19975;-67
2022/03/02 08:28:16;;;;;;;;;;;2.00;78.50;;;;;;5081132;28;19954;-67
2022/03/02 08:30:42;;;;;;;;;;;2.00;78.00;;;;;;5079523;28;19913;-68
2022/03/02 08:33:07;;;;;;;;;;;2.00;77.80;;;;;;5079887;28;19908;-67
2022/03/02 08:35:35;;;;;;;;;;;2.10;77.60;;;;;;5079937;28;19915;-66
2022/03/02 08:38:01;;;;;;;;;;;2.10;77.60;;;;;;5063291;28;19921;-67
2022/03/02 08:40:27;;;;;;;;;;;2.20;76.90;;;;;;5079511;28;19935;-66
2022/03/02 08:42:55;;;;;;;;;;;2.40;76.70;;;;;;5079586;28;20159;-67
2022/03/02 08:45:21;;;;;;;;;;;2.30;77.60;;;;;;5080817;28;19912;-67
2022/03/02 08:47:47;;;;;;;;;;;2.40;76.80;;;;;;5080824;28;19934;-67
2022/03/02 08:50:13;;;;;;;;;;;2.40;75.60;;;;;;5080667;28;19912;-66
2022/03/02 08:52:38;;;;;;;;;;;2.80;74.20;;;;;;5080780;28;20206;-69
2022/03/02 08:55:06;;;;;;;;;;;2.80;73.00;;;;;;5080748;28;19908;-67
2022/03/02 08:57:32;;;;;;;;;;;3.00;71.50;;;;;;5080690;28;19908;-67
2022/03/02 08:59:59;;;;;;;;;;;3.20;69.30;;;;;;5080862;28;19912;-68
2022/03/02 09:02:28;;;;;;;;;;;3.20;70.20;;;;;;5079305;28;19916;-67
2022/03/02 09:04:54;;;;;;;;;;;3.30;69.60;;;;;;5081572;28;19927;-67
2022/03/02 09:07:20;;;;;;;;;;;3.40;68.90;;;;;;5084384;28;19923;-67
2022/03/02 09:09:46;;;;;;;;;;;3.50;69.00;;;;;;5084076;28;20199;-67
2022/03/02 09:12:14;;;;;;;;;;;3.60;69.20;;;;;;5083805;28;19962;-67
2022/03/02 09:14:39;;;;;;;;;;;3.70;67.80;;;;;;5084321;28;20399;-67
2022/03/02 09:17:05;;;;;;;;;;;3.80;68.30;;;;;;5083047;28;19916;-67
2022/03/02 09:19:32;;;;;;;;;;;4.00;67.80;;;;;;5084189;28;19908;-66
2022/03/02 09:21:57;;;;;;;;;;;4.00;67.50;;;;;;5084100;28;19915;-67
2022/03/02 09:24:23;;;;;;;;;;;4.10;68.10;;;;;;5083168;28;19909;-67
2022/03/02 09:26:49;;;;;;;;;;;4.40;65.20;;;;;;5083944;28;19908;-67
2022/03/02 09:29:15;;;;;;;;;;;4.30;64.70;;;;;;5082619;28;19991;-67
2022/03/02 09:31:44;;;;;;;;;;;4.30;65.20;;;;;;5082445;28;19954;-67
2022/03/02 09:34:10;;;;;;;;;;;4.30;65.30;;;;;;5066488;28;19962;-68
2022/03/02 09:36:36;;;;;;;;;;;4.40;64.20;;;;;;5082547;28;20146;-68
2022/03/02 09:39:06;;;;;;;;;;;4.60;63.90;;;;;;5082511;28;19912;-67
2022/03/02 09:41:58;;;;;;;;;;;4.60;64.60;;;;;;5098117;28;19913;-67
2022/03/02 09:44:28;;;;;;;;;;;4.60;64.10;;;;;;5083558;28;19966;-66
2022/03/02 09:46:57;;;;;;;;;;;4.90;62.30;;;;;;5082671;28;19908;-67
2022/03/02 09:49:28;;;;;;;;;;;5.00;61.30;;;;;;5083961;28;19939;-67
2022/03/02 09:52:12;;;;;;;;;;;4.80;61.60;;;;;;5082369;28;19920;-66
2022/03/02 09:54:39;;;;;;;;;;;5.20;61.00;;;;;;5083949;28;19908;-66
2022/03/02 09:57:06;;;;;;;;;;;5.40;59.40;;;;;;5083654;28;19916;-66
2022/03/02 09:59:39;;;;;;;;;;;5.40;59.30;;;;;;5084114;28;19975;-67
2022/03/02 10:02:10;;;;;;;;;;;5.40;58.80;;;;;;5083660;28;19961;-66
2022/03/02 10:04:36;;;;;;;;;;;5.50;58.70;;;;;;5083899;28;19908;-66
2022/03/02 10:09:52;;;;;;;;;;;5.50;61.20;;;;;;5083463;28;19965;-66
2022/03/02 10:12:21;;;;;;;;;;;5.70;60.30;;;;;;5081385;28;20010;-66
2022/03/02 10:14:48;;;;;;;;;;;5.80;55.50;;;;;;5082999;28;19908;-66
2022/03/02 10:17:19;;;;;;;;;;;6.00;54.90;;;;;;5082571;28;19913;-66
2022/03/02 10:19:45;;;;;;;;;;;5.90;55.40;;;;;;5081925;28;19909;-65
2022/03/02 10:22:24;;;;;;;;;;;6.00;57.30;;;;;;5082005;28;20141;-67
2022/03/02 10:24:50;;;;;;;;;;;6.00;59.00;;;;;;5063037;28;20150;-66
2022/03/02 10:27:48;;;;;;;;;;;6.00;59.10;;;;;;5062546;28;19920;-66
2022/03/02 10:30:16;;;;;;;;;;;6.20;59.70;;;;;;5060684;28;19959;-67
2022/03/02 10:32:42;;;;;;;;;;;6.40;59.20;;;;;;5063396;28;19909;-66
2022/03/02 10:35:13;;;;;;;;;;;6.50;58.20;;;;;;5063403;28;19915;-67
2022/03/02 10:37:59;;;;;;;;;;;6.80;57.50;;;;;;5063252;28;20093;-66
2022/03/02 10:40:25;;;;;;;;;;;6.80;56.30;;;;;;5063090;28;20294;-66
2022/03/02 10:42:57;;;;;;;;;;;6.90;56.60;;;;;;5076870;28;19908;-66
2022/03/02 10:45:49;;;;;;;;;;;7.00;57.00;;;;;;5082352;28;20011;-66
2022/03/02 10:48:32;;;;;;;;;;;7.30;55.90;;;;;;5083360;28;19916;-66
2022/03/02 10:50:57;;;;;;;;;;;7.40;56.10;;;;;;5081926;28;19913;-66
2022/03/02 10:53:25;;;;;;;;;;;7.30;56.90;;;;;;5082128;28;19984;-66
2022/03/02 10:55:51;;;;;;;;;;;7.30;54.70;;;;;;5083398;28;19915;-67
2022/03/02 10:58:18;;;;;;;;;;;7.10;54.40;;;;;;5082030;28;19983;-66
2022/03/02 11:00:44;;;;;;;;;;;7.30;54.40;;;;;;5082950;28;19979;-67
2022/03/02 11:03:10;;;;;;;;;;;7.20;53.40;;;;;;5083079;28;19977;-66
2022/03/02 11:05:35;;;;;;;;;;;7.30;53.70;;;;;;5082982;28;19923;-66
2022/03/02 11:08:02;;;;;;;;;;;7.40;53.20;;;;;;5083105;28;20222;-66
2022/03/02 11:10:33;;;;;;;;;;;7.50;52.20;;;;;;5082459;28;20200;-67
2022/03/02 11:13:00;;;;;;;;;;;7.40;54.20;;;;;;5082440;28;19913;-67
2022/03/02 11:15:26;;;;;;;;;;;7.60;52.30;;;;;;5083010;28;20115;-66
2022/03/02 11:17:56;;;;;;;;;;;7.60;52.30;;;;;;5082805;28;19908;-66
2022/03/02 11:20:22;;;;;;;;;;;7.40;52.20;;;;;;5082488;28;19908;-67
2022/03/02 11:22:58;;;;;;;;;;;7.10;52.60;;;;;;5082603;28;19908;-66
2022/03/02 11:25:44;;;;;;;;;;;7.10;53.40;;;;;;5082829;28;19943;-67
2022/03/02 11:28:13;;;;;;;;;;;7.10;53.10;;;;;;5082054;28;19908;-65
2022/03/02 11:30:38;;;;;;;;;;;7.10;52.50;;;;;;5082616;28;19916;-66
2022/03/02 11:33:06;;;;;;;;;;;7.10;52.80;;;;;;5082756;28;20375;-66
2022/03/02 11:35:35;;;;;;;;;;;7.20;52.90;;;;;;5082383;28;19962;-67
2022/03/02 11:38:01;;;;;;;;;;;7.10;52.40;;;;;;5064774;28;19912;-66
2022/03/02 11:40:41;;;;;;;;;;;7.20;52.60;;;;;;5064679;28;19915;-66
2022/03/02 11:43:18;;;;;;;;;;;7.20;52.40;;;;;;5081786;28;19909;-67
2022/03/02 11:45:44;;;;;;;;;;;7.10;52.70;;;;;;5081451;28;19949;-66
2022/03/02 11:48:15;;;;;;;;;;;7.20;52.70;;;;;;5082413;28;19920;-67
2022/03/02 11:51:16;;;;;;;;;;;7.20;52.40;;;;;;5081062;28;19919;-68
2022/03/02 11:53:46;;;;;;;;;;;7.20;52.00;;;;;;5066421;28;19908;-67
2022/03/02 11:56:15;;;;;;;;;;;7.30;51.40;;;;;;5082410;28;19951;-66
2022/03/02 11:58:59;;;;;;;;;;;7.40;50.90;;;;;;5080946;28;20029;-66
2022/03/02 12:01:26;;;;;;;;;;;7.80;50.10;;;;;;5082039;28;20014;-67
2022/03/02 12:04:02;;;;;;;;;;;7.80;50.50;;;;;;5082183;28;19962;-67
2022/03/02 12:06:29;;;;;;;;;;;7.90;50.20;;;;;;5081045;28;19979;-67
2022/03/02 12:08:56;;;;;;;;;;;8.50;48.60;;;;;;5080547;28;19952;-67
2022/03/02 12:11:24;;;;;;;;;;;9.10;47.30;;;;;;5080673;28;19915;-68
2022/03/02 12:14:08;;;;;;;;;;;9.70;43.00;;;;;;5080784;28;19912;-67
2022/03/02 12:16:48;;;;;;;;;;;9.70;40.50;;;;;;5082633;28;19908;-67
2022/03/02 12:19:25;;;;;;;;;;;9.80;39.00;;;;;;5081942;28;19969;-67
2022/03/02 12:21:54;;;;;;;;;;;9.30;39.30;;;;;;5081709;28;19920;-67
2022/03/02 12:24:27;;;;;;;;;;;9.00;40.50;;;;;;5080999;28;19917;-67
2022/03/02 12:27:02;;;;;;;;;;;8.80;42.10;;;;;;5081353;28;20196;-67
2022/03/02 12:29:28;;;;;;;;;;;8.60;42.50;;;;;;5081797;28;20131;-67
2022/03/02 12:32:28;;;;;;;;;;;8.60;42.10;;;;;;5080529;28;19934;-67
2022/03/02 12:34:53;;;;;;;;;;;8.80;41.60;;;;;;5070024;28;19908;-67
2022/03/02 12:37:20;;;;;;;;;;;8.70;41.20;;;;;;5063122;28;19962;-67
2022/03/02 12:39:47;;;;;;;;;;;8.70;41.90;;;;;;5082864;28;19947;-67
2022/03/02 12:42:13;;;;;;;;;;;8.80;42.40;;;;;;5084739;28;19909;-66
2022/03/02 12:44:43;;;;;;;;;;;9.00;41.10;;;;;;5085694;28;20242;-65
2022/03/02 12:47:10;;;;;;;;;;;9.00;39.00;;;;;;5085671;28;20242;-68
2022/03/02 12:49:38;;;;;;;;;;;8.90;38.70;;;;;;5067571;28;19919;-66
2022/03/02 12:52:05;;;;;;;;;;;9.00;38.60;;;;;;5085422;28;19917;-67
2022/03/02 12:54:33;;;;;;;;;;;8.90;38.80;;;;;;5084461;28;19909;-67
2022/03/02 12:57:00;;;;;;;;;;;9.20;39.50;;;;;;5084060;28;19909;-66
2022/03/02 12:59:26;;;;;;;;;;;9.70;39.70;;;;;;5085592;28;20196;-67
2022/03/02 13:01:51;;;;;;;;;;;10.00;39.30;;;;;;5085166;28;19909;-67
2022/03/02 13:04:22;;;;;;;;;;;10.30;38.20;;;;;;5084283;28;19958;-66
2022/03/02 13:07:02;;;;;;;;;;;10.30;38.90;;;;;;5084266;28;19936;-66
2022/03/02 13:09:28;;;;;;;;;;;10.50;37.90;;;;;;5083922;28;20119;-67
2022/03/02 13:11:54;;;;;;;;;;;10.60;37.10;;;;;;5083480;28;19915;-67
2022/03/02 13:14:34;;;;;;;;;;;10.60;36.90;;;;;;5085258;28;20170;-67
2022/03/02 13:17:19;;;;;;;;;;;11.30;36.00;;;;;;5100850;28;19912;-67
2022/03/02 13:19:46;;;;;;;;;;;12.00;34.90;;;;;;5085073;28;19915;-67
2022/03/02 13:22:31;;;;;;;;;;;13.10;33.60;;;;;;5085184;28;19908;-68
2022/03/02 13:25:07;;;;;;;;;;;14.20;31.80;;;;;;5085103;28;19909;-67
2022/03/02 13:27:35;;;;;;;;;;;14.60;30.40;;;;;;5084695;28;19909;-68
2022/03/02 13:30:06;;;;;;;;;;;15.90;30.50;;;;;;5084887;28;19920;-67
2022/03/02 13:32:44;;;;;;;;;;;17.30;28.30;;;;;;5084759;28;19909;-68
2022/03/02 13:35:11;;;;;;;;;;;17.10;27.80;;;;;;5084997;28;19924;-68
2022/03/02 13:37:58;;;;;;;;;;;16.70;28.10;;;;;;5084721;28;19913;-68
2022/03/02 13:40:33;;;;;;;;;;;16.10;28.20;;;;;;5084815;28;20096;-68
2022/03/02 13:43:05;;;;;;;;;;;15.20;28.70;;;;;;5083875;28;19912;-68
2022/03/02 13:45:38;;;;;;;;;;;15.50;28.20;;;;;;5084573;28;19924;-68
2022/03/02 13:48:22;;;;;;;;;;;15.10;27.90;;;;;;5084600;28;19915;-67
2022/03/02 13:50:57;;;;;;;;;;;14.80;27.30;;;;;;5083448;28;19912;-68
2022/03/02 13:53:39;;;;;;;;;;;14.90;25.80;;;;;;5084497;28;19908;-67
2022/03/02 13:56:14;;;;;;;;;;;14.50;26.20;;;;;;5083514;28;19917;-68
2022/03/02 13:58:43;;;;;;;;;;;14.10;27.20;;;;;;5084162;28;20003;-68
2022/03/02 14:01:27;;;;;;;;;;;13.70;27.50;;;;;;5083056;28;20235;-67
2022/03/02 14:04:12;;;;;;;;;;;13.40;27.90;;;;;;5084532;28;19908;-67
2022/03/02 14:06:39;;;;;;;;;;;12.80;28.70;;;;;;5084222;28;19980;-68
2022/03/02 14:09:06;;;;;;;;;;;12.80;28.30;;;;;;5084133;28;19932;-68
2022/03/02 14:11:36;;;;;;;;;;;12.70;28.60;;;;;;5083768;28;19908;-67
2022/03/02 14:14:03;;;;;;;;;;;13.00;28.70;;;;;;5083733;28;19943;-67
2022/03/02 14:16:29;;;;;;;;;;;12.80;28.90;;;;;;5084126;28;20110;-67
2022/03/02 14:19:04;;;;;;;;;;;12.50;28.90;;;;;;5082984;28;19916;-67
2022/03/02 14:21:29;;;;;;;;;;;12.00;29.10;;;;;;5083552;28;19916;-67
2022/03/02 14:23:55;;;;;;;;;;;11.70;29.50;;;;;;5084011;28;19955;-67
2022/03/02 14:26:21;;;;;;;;;;;11.40;30.00;;;;;;5083898;28;19912;-67
2022/03/02 14:28:48;;;;;;;;;;;11.10;31.00;;;;;;5083454;28;20226;-67
2022/03/02 14:31:13;;;;;;;;;;;11.00;30.80;;;;;;5083581;28;20118;-67